Time,TemperatureF,DewpointF,PressureIn,WindDirection,WindDirectionDegrees,WindSpeedMPH,WindSpeedGustMPH,Humidity,HourlyPrecipIn,Conditions,Clouds,dailyrainin,SoftwareType,DateUTC
2013-05-30 00:01:00,64.8,62.7,29.64,SSW,207,2.0,6.0,93,0.03,,SCT120,0.02,VWS V14.01,2013-05-30 05:01:00,
2013-05-30 00:06:00,64.5,62.4,29.62,ESE,120,2.0,7.0,93,0.05,,SCT120,0.04,VWS V14.01,2013-05-30 05:06:00,
2013-05-30 00:11:00,64.3,62.5,29.63,SE,136,4.0,7.0,94,0.05,,SCT120,0.04,VWS V14.01,2013-05-30 05:11:00,
2013-05-30 00:16:00,64.3,62.5,29.64,SE,128,3.0,8.0,94,0.05,,SCT120,0.04,VWS V14.01,2013-05-30 05:16:00,
2013-05-30 00:21:00,64.2,62.7,29.63,SSW,195,6.0,8.0,95,0.05,,SCT120,0.04,VWS V14.01,2013-05-30 05:21:00,
2013-05-30 00:26:00,64.1,62.6,29.63,SSW,198,2.0,8.0,95,0.05,,SCT120,0.04,VWS V14.01,2013-05-30 05:26:00,
2013-05-30 00:31:00,64.1,62.6,29.63,SE,124,6.0,7.0,95,0.07,,SCT120,0.06,VWS V14.01,2013-05-30 05:31:00,
2013-05-30 00:36:00,64.0,62.5,29.63,ESE,117,9.0,16.0,95,0.10,,-RA,0.09,VWS V14.01,2013-05-30 05:36:00,
2013-05-30 00:41:00,63.9,62.4,29.63,SE,143,8.0,16.0,95,0.14,,-RA,0.13,VWS V14.01,2013-05-30 05:41:00,
2013-05-30 00:46:00,63.8,62.6,29.63,SE,134,8.0,16.0,96,0.16,,-RA,0.15,VWS V14.01,2013-05-30 05:46:00,
2013-05-30 00:51:00,63.8,62.6,29.62,ESE,120,5.0,16.0,96,0.18,,OVC090,0.17,VWS V14.01,2013-05-30 05:51:00,
2013-05-30 00:56:00,63.8,62.6,29.64,SSE,162,5.0,16.0,96,0.18,,OVC090,0.17,VWS V14.01,2013-05-30 05:56:00,
2013-05-30 01:01:00,63.8,62.6,29.64,South,186,4.0,7.0,96,0.19,,OVC090,0.19,VWS V14.01,2013-05-30 06:01:00,
2013-05-30 01:06:00,63.8,62.6,29.64,SSW,210,3.0,9.0,96,0.20,,OVC090,0.20,VWS V14.01,2013-05-30 06:06:00,
2013-05-30 01:11:00,63.8,62.6,29.65,SE,134,5.0,9.0,96,0.21,,OVC090,0.21,VWS V14.01,2013-05-30 06:11:00,
2013-05-30 01:16:00,63.8,62.6,29.64,SE,134,4.0,10.0,96,0.22,,OVC090,0.22,VWS V14.01,2013-05-30 06:16:00,
2013-05-30 01:21:00,63.8,62.6,29.63,ESE,120,8.0,10.0,96,0.22,,OVC090,0.22,VWS V14.01,2013-05-30 06:21:00,
2013-05-30 01:26:00,63.9,62.7,29.63,ESE,104,8.0,11.0,96,0.30,,OVC090,0.30,VWS V14.01,2013-05-30 06:26:00,
2013-05-30 01:31:00,63.8,62.6,29.62,ESE,102,4.0,9.0,96,0.31,,OVC090,0.35,VWS V14.01,2013-05-30 06:31:00,
2013-05-30 01:36:00,63.7,62.5,29.62,ESE,116,5.0,9.0,96,0.33,,-RA,0.37,VWS V14.01,2013-05-30 06:36:00,
2013-05-30 01:41:00,63.7,62.5,29.62,ESE,112,4.0,9.0,96,0.33,,-RA,0.37,VWS V14.01,2013-05-30 06:41:00,
2013-05-30 01:46:00,63.8,62.6,29.62,SE,132,7.0,9.0,96,0.34,,-RA,0.38,VWS V14.01,2013-05-30 06:46:00,
2013-05-30 01:51:00,63.8,62.6,29.62,ESE,112,4.0,9.0,96,0.34,,OVC048,0.38,VWS V14.01,2013-05-30 06:51:00,
2013-05-30 01:56:00,63.8,62.6,29.62,ESE,118,4.0,9.0,96,0.34,,OVC048,0.38,VWS V14.01,2013-05-30 06:56:00,
2013-05-30 02:01:00,63.9,62.7,29.62,ESE,113,8.0,8.0,96,0.21,,OVC048,0.38,VWS V14.01,2013-05-30 07:01:00,
2013-05-30 02:06:00,63.9,62.7,29.62,SE,126,3.0,9.0,96,0.21,,OVC048,0.38,VWS V14.01,2013-05-30 07:06:00,
2013-05-30 02:11:00,63.9,62.7,29.62,ESE,122,4.0,9.0,96,0.21,,OVC048,0.38,VWS V14.01,2013-05-30 07:11:00,
2013-05-30 02:16:00,63.9,62.7,29.62,ESE,110,3.0,9.0,96,0.22,,OVC048,0.39,VWS V14.01,2013-05-30 07:16:00,
2013-05-30 02:21:00,63.9,62.7,29.62,ESE,116,6.0,9.0,96,0.22,,OVC048,0.39,VWS V14.01,2013-05-30 07:21:00,
2013-05-30 02:26:00,63.9,62.7,29.61,ESE,103,4.0,9.0,96,0.22,,OVC048,0.39,VWS V14.01,2013-05-30 07:26:00,
2013-05-30 02:31:00,63.9,62.7,29.62,ESE,115,4.0,7.0,96,0.06,,OVC048,0.39,VWS V14.01,2013-05-30 07:31:00,
2013-05-30 02:36:00,63.9,62.7,29.61,East,91,2.0,7.0,96,0.06,,-RA,0.39,VWS V14.01,2013-05-30 07:36:00,
2013-05-30 02:41:00,63.9,62.7,29.61,ESE,122,3.0,7.0,96,0.06,,-RA,0.39,VWS V14.01,2013-05-30 07:41:00,
2013-05-30 02:46:00,64.0,62.8,29.62,ESE,120,3.0,8.0,96,0.06,,-RA,0.39,VWS V14.01,2013-05-30 07:46:00,
2013-05-30 02:51:00,64.0,62.8,29.61,ESE,117,2.0,8.0,96,0.06,,OVC023,0.39,VWS V14.01,2013-05-30 07:51:00,
2013-05-30 02:56:00,64.1,62.9,29.61,East,82,6.0,8.0,96,0.06,,OVC023,0.39,VWS V14.01,2013-05-30 07:56:00,
2013-05-30 03:01:00,64.1,62.9,29.61,ESE,103,5.0,7.0,96,0.01,,OVC023,0.39,VWS V14.01,2013-05-30 08:01:00,
2013-05-30 03:06:00,64.1,62.9,29.60,ESE,103,4.0,7.0,96,0.01,,OVC023,0.39,VWS V14.01,2013-05-30 08:06:00,
2013-05-30 03:11:00,64.1,62.9,29.60,SSE,158,2.0,7.0,96,0.01,,OVC023,0.39,VWS V14.01,2013-05-30 08:11:00,
2013-05-30 03:16:00,64.1,62.9,29.61,ESE,117,3.0,7.0,96,0.01,,OVC023,0.39,VWS V14.01,2013-05-30 08:16:00,
2013-05-30 03:21:00,64.1,62.9,29.60,ESE,115,1.0,7.0,96,0.01,,OVC023,0.39,VWS V14.01,2013-05-30 08:21:00,
2013-05-30 03:26:00,64.1,62.9,29.60,SE,128,3.0,7.0,96,0.01,,OVC023,0.39,VWS V14.01,2013-05-30 08:26:00,
2013-05-30 03:31:00,64.1,62.9,29.59,SE,125,2.0,4.0,96,0.00,,OVC023,0.39,VWS V14.01,2013-05-30 08:31:00,
2013-05-30 03:36:00,64.0,62.8,29.59,ESE,113,2.0,4.0,96,0.00,,OVC013,0.39,VWS V14.01,2013-05-30 08:36:00,
2013-05-30 03:41:00,64.0,62.8,29.59,ESE,117,4.0,6.0,96,0.00,,OVC013,0.39,VWS V14.01,2013-05-30 08:41:00,
2013-05-30 03:46:00,63.9,62.7,29.58,East,99,3.0,7.0,96,0.00,,OVC013,0.39,VWS V14.01,2013-05-30 08:46:00,
2013-05-30 03:51:00,63.9,62.7,29.58,ESE,107,2.0,7.0,96,0.00,,OVC013,0.39,VWS V14.01,2013-05-30 08:51:00,
2013-05-30 03:56:00,63.9,62.7,29.58,ESE,120,3.0,7.0,96,0.00,,OVC013,0.39,VWS V14.01,2013-05-30 08:56:00,
2013-05-30 04:01:00,63.8,62.6,29.58,ESE,113,2.0,6.0,96,0.00,,OVC013,0.39,VWS V14.01,2013-05-30 09:01:00,
2013-05-30 04:06:00,63.9,62.7,29.58,ESE,115,3.0,6.0,96,0.00,,OVC013,0.39,VWS V14.01,2013-05-30 09:06:00,
2013-05-30 04:11:00,63.9,62.7,29.57,ESE,120,3.0,6.0,96,0.00,,OVC013,0.39,VWS V14.01,2013-05-30 09:11:00,
2013-05-30 04:16:00,63.9,62.7,29.57,SE,128,4.0,6.0,96,0.00,,OVC013,0.39,VWS V14.01,2013-05-30 09:16:00,
2013-05-30 04:21:00,64.0,62.8,29.57,ESE,114,3.0,6.0,96,0.00,,OVC013,0.39,VWS V14.01,2013-05-30 09:21:00,
2013-05-30 04:26:00,64.1,62.9,29.56,SE,125,3.0,6.0,96,0.00,,OVC013,0.39,VWS V14.01,2013-05-30 09:26:00,
2013-05-30 04:31:00,64.1,62.9,29.56,SE,125,4.0,5.0,96,0.00,,OVC013,0.39,VWS V14.01,2013-05-30 09:31:00,
2013-05-30 04:36:00,64.2,63.0,29.56,ESE,110,2.0,7.0,96,0.00,,BKN014,0.39,VWS V14.01,2013-05-30 09:36:00,
2013-05-30 04:41:00,64.1,62.9,29.56,ESE,110,2.0,7.0,96,0.00,,BKN014,0.39,VWS V14.01,2013-05-30 09:41:00,
2013-05-30 04:46:00,64.1,63.2,29.56,ESE,103,3.0,7.0,97,0.00,,BKN014,0.39,VWS V14.01,2013-05-30 09:46:00,
2013-05-30 04:51:00,64.2,63.3,29.55,SE,126,3.0,7.0,97,0.00,,SCT120,0.39,VWS V14.01,2013-05-30 09:51:00,
2013-05-30 04:56:00,64.2,63.3,29.55,ESE,113,4.0,7.0,97,0.00,,SCT120,0.39,VWS V14.01,2013-05-30 09:56:00,
2013-05-30 05:01:00,64.3,63.4,29.55,ESE,121,4.0,7.0,97,0.00,,SCT120,0.39,VWS V14.01,2013-05-30 10:01:00,
2013-05-30 05:06:00,64.4,63.5,29.54,ESE,113,7.0,9.0,97,0.00,,SCT120,0.39,VWS V14.01,2013-05-30 10:06:00,
2013-05-30 05:11:00,64.5,63.6,29.55,ESE,113,5.0,10.0,97,0.00,,SCT120,0.39,VWS V14.01,2013-05-30 10:11:00,
2013-05-30 05:16:00,64.6,63.4,29.55,ESE,108,7.0,10.0,96,0.00,,SCT120,0.39,VWS V14.01,2013-05-30 10:16:00,
2013-05-30 05:21:00,64.7,63.5,29.55,East,98,6.0,10.0,96,0.00,,SCT120,0.39,VWS V14.01,2013-05-30 10:21:00,
2013-05-30 05:26:00,64.9,63.7,29.55,SE,124,5.0,10.0,96,0.00,,SCT120,0.39,VWS V14.01,2013-05-30 10:26:00,
2013-05-30 05:31:00,65.2,64.0,29.55,SE,139,6.0,9.0,96,0.00,,SCT120,0.39,VWS V14.01,2013-05-30 10:31:00,
2013-05-30 05:36:00,65.2,63.7,29.54,ESE,106,7.0,9.0,95,0.00,,SCT110,0.39,VWS V14.01,2013-05-30 10:36:00,
2013-05-30 05:41:00,65.3,63.8,29.54,ESE,117,4.0,11.0,95,0.00,,SCT110,0.39,VWS V14.01,2013-05-30 10:41:00,
2013-05-30 05:46:00,65.3,63.8,29.55,ESE,120,1.0,11.0,95,0.00,,SCT110,0.39,VWS V14.01,2013-05-30 10:46:00,
2013-05-30 05:51:00,65.3,63.8,29.56,SSW,213,4.0,11.0,95,0.00,,CLR,0.39,VWS V14.01,2013-05-30 10:51:00,
2013-05-30 05:56:00,65.3,63.8,29.55,SE,136,3.0,11.0,95,0.00,,CLR,0.39,VWS V14.01,2013-05-30 10:56:00,
2013-05-30 06:01:00,65.3,63.8,29.56,SE,129,6.0,7.0,95,0.00,,CLR,0.39,VWS V14.01,2013-05-30 11:01:00,
2013-05-30 06:06:00,65.5,64.0,29.55,SSE,151,2.0,9.0,95,0.00,,CLR,0.39,VWS V14.01,2013-05-30 11:06:00,
2013-05-30 06:11:00,65.8,64.3,29.55,SE,124,7.0,10.0,95,0.00,,CLR,0.39,VWS V14.01,2013-05-30 11:11:00,
2013-05-30 06:16:00,66.1,64.3,29.55,SSE,148,6.0,12.0,94,0.00,,CLR,0.39,VWS V14.01,2013-05-30 11:16:00,
2013-05-30 06:21:00,66.1,64.3,29.55,SE,131,3.0,12.0,94,0.00,,CLR,0.39,VWS V14.01,2013-05-30 11:21:00,
2013-05-30 06:26:00,66.1,64.0,29.55,SE,124,4.0,12.0,93,0.00,,CLR,0.39,VWS V14.01,2013-05-30 11:26:00,
2013-05-30 06:31:00,66.1,64.3,29.55,SE,134,3.0,8.0,94,0.00,,CLR,0.39,VWS V14.01,2013-05-30 11:31:00,
2013-05-30 06:36:00,66.1,64.3,29.55,SE,143,4.0,11.0,94,0.00,,BKN018,0.39,VWS V14.01,2013-05-30 11:36:00,
2013-05-30 06:41:00,66.3,64.5,29.55,SE,131,3.0,11.0,94,0.00,,BKN018,0.39,VWS V14.01,2013-05-30 11:41:00,
2013-05-30 06:46:00,66.6,64.5,29.55,SE,140,7.0,11.0,93,0.00,,BKN018,0.39,VWS V14.01,2013-05-30 11:46:00,
2013-05-30 06:51:00,66.8,64.7,29.54,ESE,120,6.0,11.0,93,0.00,,OVC019,0.39,VWS V14.01,2013-05-30 11:51:00,
2013-05-30 06:56:00,66.8,64.7,29.54,ESE,120,5.0,11.0,93,0.00,,OVC019,0.39,VWS V14.01,2013-05-30 11:56:00,
2013-05-30 07:01:00,66.9,64.8,29.54,ESE,120,3.0,9.0,93,0.00,,OVC019,0.39,VWS V14.01,2013-05-30 12:01:00,
2013-05-30 07:06:00,66.9,64.8,29.53,SE,131,3.0,9.0,93,0.00,,OVC019,0.39,VWS V14.01,2013-05-30 12:06:00,
2013-05-30 07:11:00,67.0,64.9,29.53,East,98,2.0,9.0,93,0.00,,OVC019,0.39,VWS V14.01,2013-05-30 12:11:00,
2013-05-30 07:16:00,67.3,65.2,29.54,South,173,3.0,9.0,93,0.00,,OVC019,0.39,VWS V14.01,2013-05-30 12:16:00,
2013-05-30 07:21:00,67.6,65.2,29.53,ESE,113,3.0,9.0,92,0.00,,OVC019,0.39,VWS V14.01,2013-05-30 12:21:00,
2013-05-30 07:26:00,67.7,65.3,29.53,SE,134,7.0,9.0,92,0.00,,OVC019,0.39,VWS V14.01,2013-05-30 12:26:00,
2013-05-30 07:31:00,67.7,65.3,29.53,SE,131,5.0,11.0,92,0.00,,OVC019,0.39,VWS V14.01,2013-05-30 12:31:00,
2013-05-30 07:36:00,67.8,65.1,29.53,ESE,120,3.0,11.0,91,0.00,,SCT075,0.39,VWS V14.01,2013-05-30 12:36:00,
2013-05-30 07:41:00,67.9,65.2,29.53,SE,124,5.0,11.0,91,0.00,,SCT075,0.39,VWS V14.01,2013-05-30 12:41:00,
2013-05-30 07:46:00,67.9,65.2,29.53,East,91,6.0,13.0,91,0.00,,SCT075,0.39,VWS V14.01,2013-05-30 12:46:00,
2013-05-30 07:51:00,67.9,65.2,29.53,SE,125,8.0,15.0,91,0.00,,SCT075,0.39,VWS V14.01,2013-05-30 12:51:00,
2013-05-30 07:56:00,68.0,65.3,29.52,ESE,120,10.0,15.0,91,0.00,,BKN021,0.39,VWS V14.01,2013-05-30 12:56:00,
2013-05-30 08:01:00,68.3,65.3,29.52,ESE,111,3.0,11.0,90,0.00,,SCT075,0.39,VWS V14.01,2013-05-30 13:01:00,
2013-05-30 08:06:00,68.5,65.5,29.52,SE,125,6.0,11.0,90,0.00,,SCT075,0.39,VWS V14.01,2013-05-30 13:06:00,
2013-05-30 08:11:00,68.7,65.7,29.53,SE,139,8.0,11.0,90,0.00,,SCT075,0.39,VWS V14.01,2013-05-30 13:11:00,
2013-05-30 08:16:00,68.9,65.8,29.53,SE,129,7.0,12.0,90,0.00,,SCT075,0.39,VWS V14.01,2013-05-30 13:16:00,
2013-05-30 08:21:00,69.5,66.1,29.53,SE,129,5.0,15.0,89,0.00,,SCT075,0.39,VWS V14.01,2013-05-30 13:21:00,
2013-05-30 08:26:00,69.7,66.0,29.53,SE,131,3.0,15.0,88,0.00,,SCT075,0.39,VWS V14.01,2013-05-30 13:26:00,
2013-05-30 08:31:00,69.7,65.7,29.53,SE,139,4.0,16.0,87,0.00,,SCT075,0.39,VWS V14.01,2013-05-30 13:31:00,
2013-05-30 08:36:00,69.7,65.7,29.54,SE,146,6.0,16.0,87,0.00,,SCT120,0.39,VWS V14.01,2013-05-30 13:36:00,
2013-05-30 08:41:00,69.7,65.7,29.54,SE,145,7.0,16.0,87,0.00,,SCT120,0.39,VWS V14.01,2013-05-30 13:41:00,
2013-05-30 08:46:00,69.7,65.7,29.54,SE,131,5.0,16.0,87,0.00,,SCT120,0.39,VWS V14.01,2013-05-30 13:46:00,
2013-05-30 08:51:00,69.9,65.9,29.54,SE,128,5.0,16.0,87,0.00,,BKN120,0.39,VWS V14.01,2013-05-30 13:51:00,
2013-05-30 08:56:00,70.0,66.0,29.55,SE,131,7.0,16.0,87,0.00,,BKN120,0.39,VWS V14.01,2013-05-30 13:56:00,
2013-05-30 09:01:00,70.2,66.2,29.55,ESE,113,11.0,11.0,87,0.00,,BKN120,0.39,VWS V14.01,2013-05-30 14:01:00,
2013-05-30 09:06:00,70.3,65.9,29.55,SE,125,10.0,15.0,86,0.00,,BKN120,0.39,VWS V14.01,2013-05-30 14:06:00,
2013-05-30 09:11:00,70.5,65.8,29.55,South,184,7.0,15.0,85,0.00,,BKN120,0.39,VWS V14.01,2013-05-30 14:11:00,
2013-05-30 09:16:00,70.7,66.0,29.55,SSE,165,6.0,15.0,85,0.00,,BKN120,0.39,VWS V14.01,2013-05-30 14:16:00,
2013-05-30 09:21:00,71.0,66.3,29.56,SSE,148,6.0,15.0,85,0.00,,BKN120,0.39,VWS V14.01,2013-05-30 14:21:00,
2013-05-30 09:26:00,71.4,66.3,29.56,SE,139,8.0,15.0,84,0.00,,BKN120,0.39,VWS V14.01,2013-05-30 14:26:00,
2013-05-30 09:31:00,71.9,66.5,29.56,SE,125,7.0,12.0,83,0.00,,BKN120,0.39,VWS V14.01,2013-05-30 14:31:00,
2013-05-30 09:36:00,72.4,66.2,29.56,ESE,113,8.0,15.0,81,0.00,,OVC110,0.39,VWS V14.01,2013-05-30 14:36:00,
2013-05-30 09:41:00,72.8,66.3,29.56,SE,142,7.0,15.0,80,0.00,,OVC110,0.39,VWS V14.01,2013-05-30 14:41:00,
2013-05-30 09:46:00,73.4,66.9,29.55,SE,140,6.0,15.0,80,0.00,,OVC110,0.39,VWS V14.01,2013-05-30 14:46:00,
2013-05-30 09:51:00,73.3,66.4,29.55,SE,146,5.0,15.0,79,0.00,,OVC110,0.39,VWS V14.01,2013-05-30 14:51:00,
2013-05-30 09:56:00,72.9,65.7,29.55,SE,132,11.0,15.0,78,0.00,,OVC110,0.39,VWS V14.01,2013-05-30 14:56:00,
2013-05-30 10:01:00,72.6,66.1,29.55,SSW,195,7.0,9.0,80,0.00,,OVC110,0.39,VWS V14.01,2013-05-30 15:01:00,
2013-05-30 10:06:00,72.3,65.8,29.55,SE,133,7.0,9.0,80,0.00,,OVC110,0.39,VWS V14.01,2013-05-30 15:06:00,
2013-05-30 10:11:00,72.1,65.6,29.55,SE,146,2.0,12.0,80,0.00,,OVC110,0.39,VWS V14.01,2013-05-30 15:11:00,
2013-05-30 10:16:00,71.9,65.4,29.55,SE,128,8.0,12.0,80,0.00,,BKN110,0.39,VWS V14.01,2013-05-30 15:16:00,
2013-05-30 10:21:00,71.9,65.4,29.55,SE,137,6.0,12.0,80,0.00,,OVC110,0.39,VWS V14.01,2013-05-30 15:21:00,
2013-05-30 10:27:00,71.9,65.4,29.54,South,176,4.0,13.0,80,0.00,,OVC110,0.39,VWS V14.01,2013-05-30 15:27:00,
2013-05-30 10:32:00,72.0,65.5,29.54,SSE,160,4.0,9.0,80,0.00,,BKN046,0.39,VWS V14.01,2013-05-30 15:32:00,
2013-05-30 10:37:00,72.0,65.1,29.54,SSW,204,2.0,11.0,79,0.00,,BKN046,0.39,VWS V14.01,2013-05-30 15:37:00,
2013-05-30 10:41:00,72.0,64.8,29.54,SSW,198,6.0,11.0,78,0.00,,BKN046,0.39,VWS V14.01,2013-05-30 15:41:00,
2013-05-30 10:46:00,72.1,64.1,29.54,SSW,200,5.0,19.0,76,0.00,,BKN046,0.39,VWS V14.01,2013-05-30 15:46:00,
2013-05-30 10:51:00,72.3,64.7,29.54,SSW,200,8.0,19.0,77,0.00,,OVC048,0.39,VWS V14.01,2013-05-30 15:51:00,
2013-05-30 10:56:00,72.3,64.3,29.55,SSE,163,5.0,19.0,76,0.00,,OVC048,0.39,VWS V14.01,2013-05-30 15:56:00,
2013-05-30 11:01:00,72.3,64.3,29.55,SSW,210,5.0,11.0,76,0.00,,OVC048,0.39,VWS V14.01,2013-05-30 16:01:00,
2013-05-30 11:06:00,72.2,64.6,29.55,South,176,5.0,11.0,77,0.00,,OVC048,0.39,VWS V14.01,2013-05-30 16:06:00,
2013-05-30 11:11:00,71.9,64.3,29.55,South,187,4.0,12.0,77,0.00,,OVC048,0.39,VWS V14.01,2013-05-30 16:11:00,
2013-05-30 11:16:00,71.6,64.8,29.55,South,177,3.0,12.0,79,0.00,,OVC048,0.39,VWS V14.01,2013-05-30 16:16:00,
2013-05-30 11:21:00,71.5,64.7,29.55,SE,133,1.0,12.0,79,0.00,,OVC048,0.39,VWS V14.01,2013-05-30 16:21:00,
2013-05-30 11:26:00,71.5,64.7,29.55,SSE,161,7.0,12.0,79,0.00,,OVC048,0.39,VWS V14.01,2013-05-30 16:26:00,
2013-05-30 11:31:00,71.7,65.2,29.55,SE,146,4.0,7.0,80,0.00,,OVC048,0.39,VWS V14.01,2013-05-30 16:31:00,
2013-05-30 11:36:00,71.7,65.2,29.55,SSW,205,2.0,7.0,80,0.00,,OVC055,0.39,VWS V14.01,2013-05-30 16:36:00,
2013-05-30 11:41:00,71.5,65.0,29.56,West,262,3.0,7.0,80,0.00,,OVC055,0.39,VWS V14.01,2013-05-30 16:41:00,
2013-05-30 11:46:00,70.3,64.6,29.56,SW,215,6.0,12.0,82,0.03,,OVC055,0.42,VWS V14.01,2013-05-30 16:46:00,
2013-05-30 11:51:00,69.2,64.2,29.56,South,170,5.0,12.0,84,0.03,,OVC050,0.42,VWS V14.01,2013-05-30 16:51:00,
2013-05-30 11:56:00,68.6,64.2,29.56,South,187,2.0,12.0,86,0.04,,OVC050,0.43,VWS V14.01,2013-05-30 16:56:00,
2013-05-30 12:01:00,68.3,64.3,29.56,SW,235,5.0,5.0,87,0.04,,OVC050,0.43,VWS V14.01,2013-05-30 17:01:00,
2013-05-30 12:06:00,68.2,64.5,29.56,SE,140,4.0,7.0,88,0.04,,OVC050,0.43,VWS V14.01,2013-05-30 17:06:00,
2013-05-30 12:11:00,68.1,64.4,29.55,South,187,4.0,7.0,88,0.04,,OVC050,0.43,VWS V14.01,2013-05-30 17:11:00,
2013-05-30 12:16:00,68.0,64.3,29.55,SE,145,2.0,7.0,88,0.04,,OVC050,0.43,VWS V14.01,2013-05-30 17:16:00,
2013-05-30 12:21:00,68.2,64.2,29.55,SE,136,5.0,7.0,87,0.04,,OVC050,0.43,VWS V14.01,2013-05-30 17:21:00,
2013-05-30 12:26:00,68.5,64.5,29.56,SE,128,2.0,7.0,87,0.04,,OVC050,0.43,VWS V14.01,2013-05-30 17:26:00,
2013-05-30 12:31:00,69.0,65.0,29.56,South,172,10.0,10.0,87,0.04,,OVC050,0.43,VWS V14.01,2013-05-30 17:31:00,
2013-05-30 12:36:00,69.3,65.3,29.56,SSW,208,4.0,10.0,87,0.04,,-RA,0.43,VWS V14.01,2013-05-30 17:36:00,
2013-05-30 12:41:00,69.7,65.7,29.56,South,173,2.0,10.0,87,0.04,,-RA,0.43,VWS V14.01,2013-05-30 17:41:00,
2013-05-30 12:46:00,70.0,65.3,29.56,SSE,160,4.0,10.0,85,0.04,,-RA,0.43,VWS V14.01,2013-05-30 17:46:00,
2013-05-30 12:51:00,70.1,64.7,29.55,South,171,6.0,11.0,83,0.04,,OVC041,0.43,VWS V14.01,2013-05-30 17:51:00,
2013-05-30 12:56:00,70.2,64.8,29.56,SE,142,4.0,11.0,83,0.04,,OVC041,0.43,VWS V14.01,2013-05-30 17:56:00,
2013-05-30 13:01:00,70.2,64.8,29.56,SSW,203,3.0,6.0,83,0.00,,OVC041,0.43,VWS V14.01,2013-05-30 18:01:00,
2013-05-30 13:06:00,70.2,64.8,29.56,SSE,163,2.0,6.0,83,0.00,,OVC041,0.43,VWS V14.01,2013-05-30 18:06:00,
2013-05-30 13:11:00,70.1,64.4,29.56,South,179,2.0,7.0,82,0.00,,OVC041,0.43,VWS V14.01,2013-05-30 18:11:00,
2013-05-30 13:16:00,70.1,64.0,29.56,SSW,205,3.0,7.0,81,0.00,,OVC041,0.43,VWS V14.01,2013-05-30 18:16:00,
2013-05-30 13:21:00,70.1,64.0,29.56,SSW,204,4.0,7.0,81,0.00,,OVC041,0.43,VWS V14.01,2013-05-30 18:21:00,
2013-05-30 13:26:00,70.1,64.0,29.56,South,188,4.0,8.0,81,0.00,,OVC041,0.43,VWS V14.01,2013-05-30 18:26:00,
2013-05-30 13:31:00,70.1,64.0,29.56,South,181,4.0,8.0,81,0.00,,OVC100,0.43,VWS V14.01,2013-05-30 18:31:00,
2013-05-30 13:36:00,70.2,64.1,29.56,SSW,198,5.0,8.0,81,0.00,,OVC090,0.43,VWS V14.01,2013-05-30 18:36:00,
2013-05-30 13:41:00,70.3,63.8,29.55,South,172,3.0,9.0,80,0.00,,OVC090,0.43,VWS V14.01,2013-05-30 18:41:00,
2013-05-30 13:46:00,70.3,63.8,29.55,SE,145,4.0,9.0,80,0.00,,OVC090,0.43,VWS V14.01,2013-05-30 18:46:00,
2013-05-30 13:51:00,70.6,64.1,29.55,SE,137,5.0,9.0,80,0.00,,OVC090,0.43,VWS V14.01,2013-05-30 18:51:00,
2013-05-30 13:56:00,71.0,64.2,29.55,SE,125,3.0,11.0,79,0.00,,OVC090,0.43,VWS V14.01,2013-05-30 18:56:00,
2013-05-30 14:01:00,71.3,64.5,29.55,SE,131,6.0,7.0,79,0.00,,OVC090,0.43,VWS V14.01,2013-05-30 19:01:00,
2013-05-30 14:06:00,71.6,64.4,29.54,SSW,201,2.0,9.0,78,0.00,,OVC090,0.43,VWS V14.01,2013-05-30 19:06:00,
2013-05-30 14:11:00,72.0,64.8,29.54,SSW,201,2.0,10.0,78,0.00,,OVC090,0.43,VWS V14.01,2013-05-30 19:11:00,
2013-05-30 14:16:00,72.8,65.6,29.54,SW,215,2.0,10.0,78,0.00,,OVC090,0.43,VWS V14.01,2013-05-30 19:16:00,
2013-05-30 14:21:00,72.9,64.1,29.54,SW,215,6.0,11.0,74,0.00,,OVC090,0.43,VWS V14.01,2013-05-30 19:21:00,
2013-05-30 14:26:00,72.8,64.4,29.53,South,174,4.0,11.0,75,0.00,,OVC090,0.43,VWS V14.01,2013-05-30 19:26:00,
2013-05-30 14:31:00,72.8,63.7,29.53,SSW,200,5.0,10.0,73,0.00,,OVC090,0.43,VWS V14.01,2013-05-30 19:31:00,
2013-05-30 14:36:00,72.8,63.7,29.53,SSW,194,6.0,15.0,73,0.00,,OVC090,0.43,VWS V14.01,2013-05-30 19:36:00,
2013-05-30 14:41:00,73.1,64.3,29.53,South,173,5.0,15.0,74,0.00,,OVC090,0.43,VWS V14.01,2013-05-30 19:41:00,
2013-05-30 14:46:00,73.6,64.4,29.53,SE,142,5.0,15.0,73,0.00,,OVC090,0.43,VWS V14.01,2013-05-30 19:46:00,
2013-05-30 14:51:00,74.2,65.4,29.53,South,190,2.0,15.0,74,0.00,,BKN120,0.43,VWS V14.01,2013-05-30 19:51:00,
2013-05-30 14:56:00,75.1,65.5,29.53,SSW,203,6.0,15.0,72,0.00,,BKN120,0.43,VWS V14.01,2013-05-30 19:56:00,
2013-05-30 15:01:00,74.9,64.5,29.52,SSW,201,6.0,12.0,70,0.00,,BKN120,0.43,VWS V14.01,2013-05-30 20:01:00,
2013-05-30 15:06:00,75.0,64.6,29.52,South,180,7.0,12.0,70,0.00,,BKN120,0.43,VWS V14.01,2013-05-30 20:06:00,
2013-05-30 15:11:00,75.2,64.3,29.52,SSE,148,3.0,12.0,69,0.00,,BKN120,0.43,VWS V14.01,2013-05-30 20:11:00,
2013-05-30 15:16:00,75.3,63.2,29.52,SSW,194,6.0,14.0,66,0.00,,BKN120,0.43,VWS V14.01,2013-05-30 20:16:00,
2013-05-30 15:21:00,75.6,63.5,29.52,SW,229,6.0,14.0,66,0.00,,BKN120,0.43,VWS V14.01,2013-05-30 20:21:00,
2013-05-30 15:26:00,75.7,62.7,29.52,SSW,210,6.0,18.0,64,0.00,,BKN120,0.43,VWS V14.01,2013-05-30 20:26:00,
2013-05-30 15:31:00,75.9,62.4,29.52,South,187,8.0,14.0,63,0.00,,BKN120,0.43,VWS V14.01,2013-05-30 20:31:00,
2013-05-30 15:36:00,76.1,63.0,29.51,SSE,163,4.0,14.0,64,0.00,,SCT120,0.43,VWS V14.01,2013-05-30 20:36:00,
2013-05-30 15:41:00,76.5,63.0,29.51,SE,135,3.0,16.0,63,0.00,,SCT120,0.43,VWS V14.01,2013-05-30 20:41:00,
2013-05-30 15:46:00,76.7,63.6,29.51,WSW,244,6.0,16.0,64,0.00,,SCT120,0.43,VWS V14.01,2013-05-30 20:46:00,
2013-05-30 15:51:00,76.8,62.8,29.51,SSW,208,8.0,16.0,62,0.00,,SCT090,0.43,VWS V14.01,2013-05-30 20:51:00,
2013-05-30 15:56:00,77.2,64.1,29.51,ESE,117,8.0,16.0,64,0.00,,SCT090,0.43,VWS V14.01,2013-05-30 20:56:00,
2013-05-30 16:01:00,77.7,64.1,29.50,SSW,195,4.0,9.0,63,0.00,,SCT090,0.43,VWS V14.01,2013-05-30 21:01:00,
2013-05-30 16:06:00,77.7,63.2,29.50,South,169,7.0,13.0,61,0.00,,SCT090,0.43,VWS V14.01,2013-05-30 21:06:00,
2013-05-30 16:11:00,78.0,63.0,29.50,SSW,200,7.0,13.0,60,0.00,,SCT090,0.43,VWS V14.01,2013-05-30 21:11:00,
2013-05-30 16:16:00,78.0,62.5,29.50,SSW,195,6.0,13.0,59,0.00,,SCT090,0.43,VWS V14.01,2013-05-30 21:16:00,
2013-05-30 16:21:00,77.6,62.6,29.50,South,174,9.0,13.0,60,0.00,,SCT090,0.43,VWS V14.01,2013-05-30 21:21:00,
2013-05-30 16:26:00,77.4,62.4,29.49,SW,226,6.0,13.0,60,0.00,,SCT090,0.43,VWS V14.01,2013-05-30 21:26:00,
2013-05-30 16:31:00,77.8,63.3,29.49,SSE,149,7.0,14.0,61,0.00,,SCT090,0.43,VWS V14.01,2013-05-30 21:31:00,
2013-05-30 16:36:00,78.0,63.0,29.49,South,188,5.0,14.0,60,0.00,,CLR,0.43,VWS V14.01,2013-05-30 21:36:00,
2013-05-30 16:41:00,77.8,63.3,29.49,SSW,210,4.0,14.0,61,0.00,,CLR,0.43,VWS V14.01,2013-05-30 21:41:00,
2013-05-30 16:46:00,77.5,63.5,29.49,SE,140,3.0,14.0,62,0.00,,CLR,0.43,VWS V14.01,2013-05-30 21:46:00,
2013-05-30 16:51:00,77.3,63.7,29.49,SE,128,3.0,14.0,63,0.00,,CLR,0.43,VWS V14.01,2013-05-30 21:51:00,
2013-05-30 16:56:00,76.9,63.8,29.49,ESE,107,7.0,14.0,64,0.00,,CLR,0.43,VWS V14.01,2013-05-30 21:56:00,
2013-05-30 17:01:00,76.5,63.4,29.49,SE,126,3.0,11.0,64,0.00,,CLR,0.43,VWS V14.01,2013-05-30 22:01:00,
2013-05-30 17:06:00,76.2,63.6,29.48,SSE,150,3.0,11.0,65,0.00,,CLR,0.43,VWS V14.01,2013-05-30 22:06:00,
2013-05-30 17:11:00,75.9,63.3,29.49,SSW,201,4.0,11.0,65,0.00,,CLR,0.43,VWS V14.01,2013-05-30 22:11:00,
2013-05-30 17:16:00,75.6,63.0,29.49,SSW,211,4.0,11.0,65,0.00,,CLR,0.43,VWS V14.01,2013-05-30 22:16:00,
2013-05-30 17:21:00,75.2,63.5,29.49,SSE,160,5.0,11.0,67,0.00,,CLR,0.43,VWS V14.01,2013-05-30 22:21:00,
2013-05-30 17:26:00,75.0,63.7,29.48,SSW,204,2.0,11.0,68,0.00,,CLR,0.43,VWS V14.01,2013-05-30 22:26:00,
2013-05-30 17:31:00,74.8,63.5,29.49,SE,140,4.0,8.0,68,0.00,,CLR,0.43,VWS V14.01,2013-05-30 22:31:00,
2013-05-30 17:36:00,74.6,63.3,29.48,ESE,120,4.0,11.0,68,0.00,,OVC110,0.43,VWS V14.01,2013-05-30 22:36:00,
2013-05-30 17:41:00,74.4,63.6,29.49,SE,133,5.0,11.0,69,0.00,,OVC110,0.43,VWS V14.01,2013-05-30 22:41:00,
2013-05-30 17:46:00,74.3,63.5,29.48,SSE,161,3.0,11.0,69,0.00,,OVC110,0.43,VWS V14.01,2013-05-30 22:46:00,
2013-05-30 17:51:00,74.2,63.4,29.48,SE,137,5.0,11.0,69,0.00,,OVC110,0.43,VWS V14.01,2013-05-30 22:51:00,
2013-05-30 17:56:00,74.2,63.4,29.49,SE,135,8.0,11.0,69,0.00,,OVC110,0.43,VWS V14.01,2013-05-30 22:56:00,
2013-05-30 18:01:00,74.3,63.5,29.49,SSE,165,7.0,8.0,69,0.00,,OVC110,0.43,VWS V14.01,2013-05-30 23:01:00,
2013-05-30 18:06:00,74.4,64.0,29.49,SE,145,5.0,9.0,70,0.00,,OVC110,0.43,VWS V14.01,2013-05-30 23:06:00,
2013-05-30 18:11:00,74.3,63.9,29.48,ESE,117,4.0,9.0,70,0.00,,OVC110,0.43,VWS V14.01,2013-05-30 23:11:00,
2013-05-30 18:16:00,74.4,64.0,29.48,South,180,1.0,9.0,70,0.00,,OVC110,0.43,VWS V14.01,2013-05-30 23:16:00,
2013-05-30 18:21:00,74.4,64.0,29.48,SE,146,2.0,9.0,70,0.00,,OVC110,0.43,VWS V14.01,2013-05-30 23:21:00,
2013-05-30 18:26:00,74.6,63.8,29.47,South,170,5.0,11.0,69,0.00,,OVC110,0.43,VWS V14.01,2013-05-30 23:26:00,
2013-05-30 18:31:00,74.9,63.6,29.47,South,183,7.0,7.0,68,0.00,,OVC110,0.43,VWS V14.01,2013-05-30 23:31:00,
2013-05-30 18:36:00,75.0,63.3,29.48,SSE,162,3.0,9.0,67,0.00,,OVC075,0.43,VWS V14.01,2013-05-30 23:36:00,
2013-05-30 18:41:00,74.8,63.1,29.47,SSE,154,8.0,14.0,67,0.00,,OVC075,0.43,VWS V14.01,2013-05-30 23:41:00,
2013-05-30 18:46:00,74.6,62.9,29.47,SSE,147,3.0,14.0,67,0.00,,OVC075,0.43,VWS V14.01,2013-05-30 23:46:00,
2013-05-30 18:51:00,74.4,63.2,29.47,SE,129,6.0,14.0,68,0.00,,OVC075,0.43,VWS V14.01,2013-05-30 23:51:00,
2013-05-30 18:56:00,74.3,63.1,29.47,SE,129,9.0,14.0,68,0.00,,OVC075,0.43,VWS V14.01,2013-05-30 23:56:00,
2013-05-30 19:01:00,74.2,63.0,29.47,SSE,162,6.0,10.0,68,0.00,,OVC075,0.43,VWS V14.01,2013-05-31 00:01:00,
2013-05-30 19:06:00,74.1,63.3,29.47,SE,131,2.0,10.0,69,0.00,,OVC075,0.43,VWS V14.01,2013-05-31 00:06:00,
2013-05-30 19:11:00,74.1,63.7,29.47,SE,140,2.0,10.0,70,0.00,,OVC060,0.43,VWS V14.01,2013-05-31 00:11:00,
2013-05-30 19:16:00,73.9,63.9,29.46,SE,140,3.0,10.0,71,0.00,,OVC060,0.43,VWS V14.01,2013-05-31 00:16:00,
2013-05-30 19:21:00,73.7,64.1,29.46,SE,145,4.0,10.0,72,0.00,,OVC060,0.43,VWS V14.01,2013-05-31 00:21:00,
2013-05-30 19:26:00,73.4,63.8,29.47,SSE,162,4.0,10.0,72,0.00,,OVC060,0.43,VWS V14.01,2013-05-31 00:26:00,
2013-05-30 19:31:00,72.8,64.4,29.47,South,190,8.0,10.0,75,0.00,,OVC060,0.43,VWS V14.01,2013-05-31 00:31:00,
2013-05-30 19:36:00,72.0,64.4,29.47,SSE,150,4.0,12.0,77,0.00,,OVC080,0.43,VWS V14.01,2013-05-31 00:36:00,
2013-05-30 19:41:00,71.6,64.4,29.48,SSW,198,4.0,12.0,78,0.00,,OVC080,0.43,VWS V14.01,2013-05-31 00:41:00,
2013-05-30 19:46:00,71.4,64.6,29.48,SSW,195,2.0,12.0,79,0.00,,OVC080,0.43,VWS V14.01,2013-05-31 00:46:00,
2013-05-30 19:51:00,71.3,64.5,29.48,SSW,203,4.0,12.0,79,0.00,,OVC110,0.43,VWS V14.01,2013-05-31 00:51:00,
2013-05-30 19:56:00,71.2,64.4,29.48,SSW,212,3.0,12.0,79,0.00,,OVC110,0.43,VWS V14.01,2013-05-31 00:56:00,
2013-05-30 20:01:00,70.9,64.1,29.48,SW,235,0.0,3.0,79,0.00,,OVC110,0.43,VWS V14.01,2013-05-31 01:01:00,
2013-05-30 20:06:00,70.5,64.0,29.48,SSW,205,2.0,5.0,80,0.00,,OVC110,0.43,VWS V14.01,2013-05-31 01:06:00,
2013-05-30 20:11:00,70.3,63.8,29.48,SSW,197,2.0,5.0,80,0.00,,OVC110,0.43,VWS V14.01,2013-05-31 01:11:00,
2013-05-30 20:16:00,70.1,64.0,29.48,SSW,212,1.0,5.0,81,0.00,,OVC110,0.43,VWS V14.01,2013-05-31 01:16:00,
2013-05-30 20:21:00,70.0,63.9,29.48,SSW,213,2.0,5.0,81,0.00,,OVC110,0.43,VWS V14.01,2013-05-31 01:21:00,
2013-05-30 20:26:00,70.0,63.9,29.48,SSW,207,1.0,5.0,81,0.00,,OVC110,0.43,VWS V14.01,2013-05-31 01:26:00,
2013-05-30 20:31:00,69.9,63.8,29.48,South,183,1.0,3.0,81,0.00,,OVC110,0.43,VWS V14.01,2013-05-31 01:31:00,
2013-05-30 20:36:00,69.9,63.8,29.48,SSW,197,1.0,5.0,81,0.00,,OVC049,0.43,VWS V14.01,2013-05-31 01:36:00,
2013-05-30 20:41:00,69.9,63.8,29.48,SE,131,1.0,5.0,81,0.00,,OVC049,0.43,VWS V14.01,2013-05-31 01:41:00,
2013-05-30 20:46:00,69.9,63.8,29.48,SE,146,2.0,5.0,81,0.00,,OVC049,0.43,VWS V14.01,2013-05-31 01:46:00,
2013-05-30 20:51:00,69.8,63.7,29.48,SE,136,5.0,5.0,81,0.00,,OVC050,0.43,VWS V14.01,2013-05-31 01:51:00,
2013-05-30 20:56:00,69.9,63.5,29.48,SE,137,6.0,7.0,80,0.00,,OVC050,0.43,VWS V14.01,2013-05-31 01:56:00,
2013-05-30 21:01:00,70.0,63.5,29.48,SSE,152,5.0,8.0,80,0.00,,OVC050,0.43,VWS V14.01,2013-05-31 02:01:00,
2013-05-30 21:06:00,69.8,63.4,29.47,SSE,148,2.0,9.0,80,0.00,,OVC050,0.43,VWS V14.01,2013-05-31 02:06:00,
2013-05-30 21:11:00,69.6,63.5,29.47,SE,125,3.0,9.0,81,0.00,,OVC050,0.43,VWS V14.01,2013-05-31 02:11:00,
2013-05-30 21:16:00,69.2,63.5,29.48,East,101,5.0,9.0,82,0.00,,OVC050,0.43,VWS V14.01,2013-05-31 02:16:00,
2013-05-30 21:21:00,68.7,63.3,29.48,ESE,116,7.0,9.0,83,0.00,,OVC050,0.43,VWS V14.01,2013-05-31 02:21:00,
2013-05-30 21:26:00,67.9,63.2,29.47,ESE,120,5.0,9.0,85,0.00,,OVC050,0.43,VWS V14.01,2013-05-31 02:26:00,
2013-05-30 21:31:00,67.2,62.9,29.48,SE,138,4.0,8.0,86,0.00,,OVC050,0.43,VWS V14.01,2013-05-31 02:31:00,
2013-05-30 21:36:00,66.9,62.9,29.47,ESE,123,2.0,8.0,87,0.00,,OVC095,0.43,VWS V14.01,2013-05-31 02:36:00,
2013-05-30 21:41:00,66.7,63.0,29.48,ESE,113,2.0,8.0,88,0.00,,OVC095,0.43,VWS V14.01,2013-05-31 02:41:00,
2013-05-30 21:46:00,66.5,62.8,29.48,SE,134,2.0,8.0,88,0.00,,OVC095,0.43,VWS V14.01,2013-05-31 02:46:00,
2013-05-30 21:51:00,66.4,63.1,29.48,ESE,117,4.0,8.0,89,0.00,,OVC090,0.43,VWS V14.01,2013-05-31 02:51:00,
2013-05-30 21:56:00,66.2,62.9,29.48,SE,125,3.0,8.0,89,0.00,,OVC090,0.43,VWS V14.01,2013-05-31 02:56:00,
2013-05-30 22:01:00,66.0,63.0,29.48,ESE,113,1.0,6.0,90,0.00,,OVC090,0.43,VWS V14.01,2013-05-31 03:01:00,
2013-05-30 22:06:00,65.9,62.9,29.48,ESE,120,3.0,6.0,90,0.00,,OVC090,0.43,VWS V14.01,2013-05-31 03:06:00,
2013-05-30 22:11:00,65.8,63.1,29.48,ESE,103,2.0,6.0,91,0.00,,OVC090,0.43,VWS V14.01,2013-05-31 03:11:00,
2013-05-30 22:16:00,65.6,62.9,29.48,ESE,113,3.0,6.0,91,0.00,,OVC090,0.43,VWS V14.01,2013-05-31 03:16:00,
2013-05-30 22:21:00,65.6,62.9,29.48,ESE,123,2.0,6.0,91,0.00,,OVC090,0.43,VWS V14.01,2013-05-31 03:21:00,
2013-05-30 22:26:00,65.5,63.1,29.49,ESE,120,2.0,6.0,92,0.00,,OVC090,0.43,VWS V14.01,2013-05-31 03:26:00,
2013-05-30 22:31:00,65.5,63.1,29.49,SE,128,2.0,3.0,92,0.00,,OVC090,0.43,VWS V14.01,2013-05-31 03:31:00,
2013-05-30 22:36:00,65.5,63.1,29.49,SE,131,1.0,4.0,92,0.00,,OVC080,0.43,VWS V14.01,2013-05-31 03:36:00,
2013-05-30 22:41:00,65.5,63.1,29.49,ESE,113,5.0,5.0,92,0.00,,OVC080,0.43,VWS V14.01,2013-05-31 03:41:00,
2013-05-30 22:46:00,65.5,63.1,29.49,SE,136,2.0,6.0,92,0.00,,OVC080,0.43,VWS V14.01,2013-05-31 03:46:00,
2013-05-30 22:51:00,65.5,63.1,29.49,SE,128,3.0,7.0,92,0.00,,BKN045,0.43,VWS V14.01,2013-05-31 03:51:00,
2013-05-30 22:56:00,65.4,63.3,29.48,SE,131,1.0,7.0,93,0.00,,BKN045,0.43,VWS V14.01,2013-05-31 03:56:00,
2013-05-30 23:01:00,65.4,63.3,29.49,SSE,167,3.0,6.0,93,0.00,,BKN045,0.43,VWS V14.01,2013-05-31 04:01:00,
2013-05-30 23:06:00,65.3,63.2,29.48,SE,142,4.0,6.0,93,0.00,,BKN045,0.43,VWS V14.01,2013-05-31 04:06:00,
2013-05-30 23:11:00,65.2,63.1,29.49,SE,143,2.0,6.0,93,0.00,,BKN045,0.43,VWS V14.01,2013-05-31 04:11:00,
2013-05-30 23:16:00,65.2,63.1,29.49,SSE,160,4.0,6.0,93,0.00,,BKN045,0.43,VWS V14.01,2013-05-31 04:16:00,
2013-05-30 23:21:00,65.2,63.4,29.48,SSE,167,4.0,6.0,94,0.00,,BKN045,0.43,VWS V14.01,2013-05-31 04:21:00,
2013-05-30 23:26:00,65.2,63.4,29.49,SE,145,3.0,6.0,94,0.00,,BKN045,0.43,VWS V14.01,2013-05-31 04:26:00,
2013-05-30 23:31:00,65.2,63.4,29.49,SSE,165,3.0,7.0,94,0.00,,BKN045,0.43,VWS V14.01,2013-05-31 04:31:00,
2013-05-30 23:36:00,65.3,63.5,29.49,SE,139,1.0,8.0,94,0.00,,OVC110,0.43,VWS V14.01,2013-05-31 04:36:00,
2013-05-30 23:41:00,65.3,63.5,29.49,SSE,167,2.0,8.0,94,0.00,,OVC110,0.43,VWS V14.01,2013-05-31 04:41:00,
2013-05-30 23:46:00,65.2,63.4,29.49,SSE,165,2.0,8.0,94,0.00,,OVC110,0.43,VWS V14.01,2013-05-31 04:46:00,
2013-05-30 23:51:00,65.2,63.4,29.48,SSW,200,3.0,8.0,94,0.00,,OVC120,0.43,VWS V14.01,2013-05-31 04:51:00,
2013-05-30 23:56:00,65.2,63.4,29.48,SSE,156,1.0,8.0,94,0.00,,OVC120,0.43,VWS V14.01,2013-05-31 04:56:00,